Latest Weather Observations for Wiluna Airport

IDW60801

Issued at 6:53 pm WST Saturday 22 February 2020 (issued every 10 minutes, with the page automatically refreshed every 10 minutes)

About weather observations | Map of weather stations | Latest weather observations for WA | Other Formats
Station Details ID: 013044 Name: WILUNA AERO Lat: -26.63 Lon: 120.22 Height: 502.4 m
Data from the previous 72 hours. | See also: Recent months at Wiluna Airport
Date/Time
WST
Temp
°C
App
Temp
°C
Dew
Point
°C
Rel
Hum
%
Delta-T
°C
Wind Press
QNH
hPa
Press
MSL
hPa
Rain since
9am
mm
Dir  Spd
km/h
Gust
km/h
Spd
kts
Gust
kts
22/06:30pm 24.2 24.6 20.7 81 2.3 E 19 28 10 15 1011.1 1007.2 1.8
22/06:00pm 24.2 24.3 21.1 83 2.1 ESE 22 30 12 16 1010.4 1006.5 1.8
22/05:30pm 25.0 25.9 20.9 78 2.7 SE 17 20 9 11 1009.9 1006.0 0.8
22/05:00pm 27.2 28.1 19.3 62 5.2 SSW 13 17 7 9 1010.4 1006.5 0.0
22/04:30pm 29.6 28.3 18.1 50 7.5 ESE 22 30 12 16 1008.6 1004.7 0.0
22/04:00pm 30.0 27.8 18.8 51 7.4 SE 28 37 15 20 1008.7 1004.8 0.0
22/03:46pm 30.4 30.6 18.5 49 7.8 NNW 15 33 8 18 1009.4 1005.5 0.0
22/03:30pm 29.6 29.1 19.0 53 7.0 NNW 20 56 11 30 1008.7 1004.8 0.0
22/03:18pm 32.3 29.6 16.6 39 10.1 WNW 26 50 14 27 1008.6 1004.7 0.0
22/03:15pm 32.5 29.9 15.9 36 10.6 WNW 24 50 13 27 1008.7 1004.8 0.0
22/03:00pm 33.5 32.7 17.2 37 10.6 WNW 17 24 9 13 1008.8 1004.9 0.0
22/02:30pm 35.1 33.1 14.9 29 12.8 SSW 19 24 10 13 1009.0 1005.1 0.0
22/02:00pm 35.9 33.5 14.5 27 13.5 SSW 20 28 11 15 1009.6 1005.7 0.0
22/01:30pm 35.0 32.6 13.8 28 13.2 SW 19 26 10 14 1010.4 1006.5 0.0
22/01:00pm 34.2 32.7 14.1 29 12.6 WSW 15 20 8 11 1010.9 1007.0 0.0
22/12:30pm 33.5 32.9 13.5 29 12.4 NNW 9 13 5 7 1011.7 1007.8 0.0
22/12:00pm 32.9 31.8 13.0 30 12.2 NNW 11 17 6 9 1012.3 1008.4 0.0
22/11:30am 31.5 30.5 12.3 31 11.6 N 9 13 5 7 1012.8 1008.9 0.0
22/11:00am 30.6 28.2 11.5 30 11.3 N 15 19 8 10 1013.2 1009.3 0.0
22/10:30am 30.1 28.5 11.6 32 11.0 NNE 11 15 6 8 1013.5 1009.6 0.0
22/10:00am 29.4 27.8 11.5 33 10.6 NNE 11 17 6 9 1013.7 1009.8 0.0
22/09:30am 28.8 25.4 10.5 32 10.6 NE 19 26 10 14 1013.8 1010.0 0.0
22/09:00am 28.7 25.7 9.4 30 11.0 ENE 15 22 8 12 1013.7 1009.8 0.0
22/08:30am 27.6 24.6 9.4 32 10.3 ENE 15 20 8 11 1013.9 1010.1 0.0
22/08:00am 26.9 23.6 9.7 34 9.7 ENE 17 24 9 13 1013.8 1010.0 0.0
22/07:30am 26.6 23.3 9.5 34 9.6 ENE 17 22 9 12 1013.7 1009.8 0.0
22/07:00am 26.5 23.5 9.4 34 9.6 ENE 15 20 8 11 1013.7 1009.8 0.0
22/06:30am 26.3 22.9 9.2 34 9.6 E 17 28 9 15 1013.3 1009.4 0.0
22/06:00am 26.1 23.0 9.0 34 9.5 E 15 20 8 11 1013.1 1009.2 0.0
22/05:30am 26.2 23.2 9.1 34 9.6 E 15 20 8 11 1012.9 1009.0 0.0
22/05:00am 26.2 23.3 9.5 35 9.4 E 15 20 8 11 1012.7 1008.8 0.0
22/04:30am 26.5 23.5 9.4 34 9.6 E 15 19 8 10 1012.7 1008.8 0.0
22/04:00am 26.7 23.7 9.1 33 9.9 ENE 15 24 8 13 1012.7 1008.8 0.0
22/03:30am 27.1 23.4 9.5 33 9.9 E 19 26 10 14 1012.7 1008.8 0.0
22/03:00am 27.3 24.0 9.6 33 10.0 E 17 22 9 12 1012.8 1008.9 0.0
22/02:30am 27.4 24.1 9.7 33 10.1 E 17 22 9 12 1012.9 1009.0 0.0
22/02:00am 27.6 24.6 9.4 32 10.3 E 15 19 8 10 1013.1 1009.2 0.0
22/01:30am 27.9 24.5 9.2 31 10.6 E 17 24 9 13 1013.4 1009.5 0.0
22/01:00am 27.9 24.9 9.2 31 10.6 E 15 20 8 11 1013.5 1009.6 0.0
22/12:30am 28.0 24.4 9.8 32 10.4 ESE 19 24 10 13 1013.6 1009.7 0.0
22/12:00am 27.6 25.5 11.2 36 9.6 ESE 13 20 7 11 1013.7 1009.8 0.0
 
Date/Time
WST
Temp
°C
App
Temp
°C
Dew
Point
°C
Rel
Hum
%
Delta-T
°C
Wind Press
QNH
hPa
Press
MSL
hPa
Rain since
9am
mm
Dir  Spd
km/h
Gust
km/h
Spd
kts
Gust
kts
21/11:30pm 27.2 25.0 12.0 38 9.0 SE 15 20 8 11 1013.8 1010.0 0.0
21/11:00pm 27.6 26.0 12.8 40 8.8 SE 13 17 7 9 1013.9 1010.1 0.0
21/10:30pm 27.7 26.4 14.7 45 8.0 SE 15 19 8 10 1014.4 1010.5 0.0
21/10:00pm 28.5 27.3 12.8 38 9.4 ESE 11 13 6 7 1014.4 1010.5 0.0
21/09:30pm 28.6 27.2 12.1 36 9.8 ESE 11 15 6 8 1014.4 1010.5 0.0
21/09:00pm 29.1 27.0 11.2 33 10.5 ESE 13 17 7 9 1014.1 1010.3 0.0
21/08:30pm 29.8 28.1 11.3 32 10.9 SE 11 13 6 7 1013.8 1010.0 0.0
21/08:00pm 30.1 28.8 12.5 34 10.6 SE 11 13 6 7 1013.8 1010.0 0.0
21/07:30pm 30.2 28.5 12.6 34 10.6 SE 13 17 7 9 1013.6 1009.7 0.0
21/07:00pm 30.8 28.6 12.2 32 11.2 SE 15 19 8 10 1013.1 1009.2 0.0
21/06:30pm 31.2 28.1 11.6 30 11.7 SE 19 20 10 11 1012.7 1008.8 0.0
21/06:00pm 31.8 29.1 11.6 29 12.1 SE 17 24 9 13 1012.6 1008.7 0.0
21/05:30pm 32.3 29.6 10.4 26 12.9 SE 15 20 8 11 1012.5 1008.6 0.0
21/05:00pm 32.4 28.1 9.2 24 13.4 E 22 30 12 16 1012.4 1008.5 0.0
21/04:30pm 32.7 28.7 8.9 23 13.7 SE 20 26 11 14 1012.5 1008.6 0.0
21/04:00pm 32.6 28.3 9.4 24 13.4 SE 22 30 12 16 1012.5 1008.6 0.0
21/03:30pm 32.5 28.6 9.3 24 13.4 SE 20 30 11 16 1012.6 1008.7 0.0
21/03:00pm 32.4 28.6 9.2 24 13.4 ESE 19 26 10 14 1013.0 1009.1 0.0
21/02:30pm 31.6 28.4 9.8 26 12.6 ESE 17 28 9 15 1013.2 1009.3 0.0
21/02:00pm 31.8 28.2 9.9 26 12.7 SE 19 24 10 13 1013.6 1009.7 0.0
21/01:30pm 30.5 27.2 9.4 27 12.1 ESE 17 28 9 15 1014.1 1010.3 0.0
21/01:00pm 29.5 27.0 9.6 29 11.4 ESE 13 24 7 13 1014.5 1010.6 0.0
21/12:30pm 29.1 25.5 9.8 30 11.1 E 19 26 10 14 1014.9 1011.0 0.0
21/12:00pm 28.7 25.6 10.4 32 10.6 E 17 28 9 15 1015.2 1011.3 0.0
21/11:30am 27.5 24.0 10.2 34 9.9 E 19 26 10 14 1015.5 1011.6 0.0
21/11:00am 27.4 23.9 11.0 36 9.5 ESE 20 30 11 16 1016.0 1012.2 0.0
21/10:30am 26.0 21.8 11.0 39 8.6 ESE 24 33 13 18 1016.3 1012.5 0.0
21/10:00am 26.0 21.4 11.0 39 8.6 ESE 26 33 14 18 1016.6 1012.7 0.0
21/09:30am 25.7 22.1 11.8 42 8.1 E 22 30 12 16 1016.9 1013.0 0.0
21/09:00am 23.4 20.6 12.7 51 6.3 ESE 19 22 10 12 1017.1 1013.2 0.6
21/08:30am 21.4 19.8 13.8 62 4.5 ESE 15 20 8 11 1017.1 1013.2 0.6
21/08:00am 20.8 18.4 13.7 64 4.2 SE 19 22 10 12 1016.8 1012.9 0.6
21/07:30am 20.6 19.0 13.8 65 4.0 SSE 15 19 8 10 1016.9 1013.0 0.6
21/07:00am 20.1 19.0 14.2 69 3.5 SE 13 17 7 9 1016.9 1013.0 0.6
21/06:30am 19.8 18.7 14.2 70 3.3 SE 13 17 7 9 1016.5 1012.6 0.6
21/06:00am 20.2 18.4 13.4 65 4.0 SE 15 19 8 10 1016.0 1012.2 0.6
21/05:30am 20.1 18.0 13.6 66 3.8 SE 17 20 9 11 1015.8 1012.0 0.6
21/05:00am 20.2 18.6 13.9 67 3.7 SSE 15 17 8 9 1015.7 1011.9 0.6
21/04:30am 20.2 19.0 14.1 68 3.6 SSE 13 15 7 8 1015.5 1011.6 0.6
21/04:00am 20.3 18.7 14.0 67 3.7 SSE 15 19 8 10 1015.3 1011.4 0.6
21/03:30am 20.4 19.3 14.3 68 3.6 SSE 13 17 7 9 1015.5 1011.6 0.6
21/03:00am 20.3 19.9 14.2 68 3.6 SSE 9 13 5 7 1015.6 1011.8 0.6
21/02:30am 20.5 19.5 14.6 69 3.5 ESE 13 20 7 11 1015.3 1011.4 0.6
21/02:00am 20.4 19.0 14.5 69 3.5 ESE 15 17 8 9 1015.3 1011.4 0.6
21/01:30am 20.5 20.3 14.6 69 3.5 ESE 9 11 5 6 1016.0 1012.2 0.6
21/01:00am 20.8 19.8 14.5 67 3.8 SE 13 15 7 8 1015.5 1011.6 0.6
21/12:30am 20.9 19.8 14.3 66 3.9 SE 13 15 7 8 1016.0 1012.2 0.6
21/12:00am 21.0 20.7 14.4 66 3.9 SE 9 13 5 7 1016.3 1012.5 0.6
 
Date/Time
WST
Temp
°C
App
Temp
°C
Dew
Point
°C
Rel
Hum
%
Delta-T
°C
Wind Press
QNH
hPa
Press
MSL
hPa
Rain since
9am
mm
Dir  Spd
km/h
Gust
km/h
Spd
kts
Gust
kts
20/11:30pm 20.9 19.4 14.3 66 3.9 SE 15 19 8 10 1016.3 1012.5 0.6
20/11:00pm 20.9 20.1 15.0 69 3.6 SE 13 15 7 8 1016.5 1012.6 0.6
20/10:30pm 21.0 20.2 15.1 69 3.6 SE 13 15 7 8 1016.6 1012.7 0.6
20/10:00pm 21.1 19.8 14.7 67 3.8 SE 15 19 8 10 1016.6 1012.7 0.6
20/09:30pm 21.4 20.7 15.3 68 3.7 SE 13 17 7 9 1016.3 1012.5 0.6
20/09:00pm 21.6 19.5 14.7 65 4.1 SE 19 24 10 13 1016.5 1012.6 0.6
20/08:30pm 22.0 19.1 14.1 61 4.7 SE 22 28 12 15 1016.5 1012.6 0.6
20/08:00pm 22.0 19.6 15.4 66 4.0 SE 22 28 12 15 1016.2 1012.4 0.6
20/07:30pm 22.5 20.2 15.8 66 4.1 SE 22 28 12 15 1016.0 1012.2 0.6
20/07:00pm 22.6 20.3 16.6 69 3.7 SE 24 30 13 16 1015.4 1011.5 0.6
20/06:30pm 23.1 21.4 17.3 70 3.7 SE 22 28 12 15 1014.9 1011.0 0.6
20/06:00pm 23.4 21.6 16.9 67 4.1 SE 22 28 12 15 1014.2 1010.4 0.6
20/05:30pm 23.8 21.5 17.5 68 4.0 SE 26 33 14 18 1013.7 1009.8 0.6
20/05:00pm 23.7 21.2 17.2 67 4.1 SSE 26 32 14 17 1013.8 1010.0 0.6
20/04:30pm 23.8 21.3 17.1 66 4.2 SE 26 32 14 17 1013.6 1009.7 0.6
20/04:00pm 24.2 21.7 17.2 65 4.4 SE 26 33 14 18 1013.3 1009.4 0.6
20/03:30pm 23.8 20.5 17.1 66 4.2 SSE 30 37 16 20 1013.0 1009.1 0.6
20/03:00pm 24.3 21.0 18.0 68 4.0 SE 32 41 17 22 1012.8 1008.9 0.6
20/02:30pm 22.5 21.0 17.6 74 3.1 SE 22 28 12 15 1013.8 1010.0 0.6
20/02:00pm 21.3 19.3 17.3 78 2.5 ESE 24 32 13 17 1013.8 1010.0 0.6
20/01:30pm 20.8 18.8 17.4 81 2.1 ESE 24 32 13 17 1013.9 1010.1 0.6
20/01:00pm 20.1 17.1 16.9 82 2.0 ESE 28 41 15 22 1014.4 1010.5 0.2
20/12:30pm 20.0 17.2 16.4 80 2.2 ESE 26 32 14 17 1015.3 1011.4 0.2
20/12:00pm 19.8 17.5 16.6 82 2.0 SE 24 30 13 16 1016.2 1012.4 0.2
20/11:30am 19.9 17.7 16.9 83 1.9 ESE 24 30 13 16 1016.8 1012.9 0.0
20/11:00am 20.1 17.6 16.1 78 2.4 SE 24 30 13 16 1017.4 1013.5 0.0
20/10:30am 19.9 18.2 15.7 77 2.6 ESE 19 24 10 13 1018.0 1014.2 0.0
20/10:00am 19.9 17.4 16.2 79 2.3 SE 24 30 13 16 1018.2 1014.4 0.0
20/09:30am 19.5 18.0 16.2 81 2.0 SE 19 24 10 13 1018.3 1014.5 0.0
20/09:00am 19.5 17.4 16.3 82 2.0 SSE 22 28 12 15 1018.2 1014.4 1.6
20/08:30am 19.5 18.4 16.3 82 2.0 SSE 17 20 9 11 1018.3 1014.5 1.4
20/08:00am 20.0 19.2 16.0 78 2.4 SSE 15 19 8 10 1018.2 1014.4 0.8
20/07:30am 19.7 19.2 15.8 78 2.4 S 13 17 7 9 1017.7 1013.9 0.6
20/07:00am 19.6 19.2 16.3 81 2.0 S 13 17 7 9 1017.1 1013.2 0.6
20/06:30am 19.1 19.3 16.7 86 1.5 SW 11 13 6 7 1016.7 1012.8 0.6
20/06:00am 19.0 18.2 16.2 84 1.7 WSW 15 20 8 11 1016.5 1012.6 0.4
20/05:30am 20.5 19.0 15.3 72 3.1 WSW 17 20 9 11 1015.9 1012.1 0.0
20/05:00am 22.9 19.7 13.1 54 5.8 SW 22 32 12 17 1015.3 1011.4 0.0
20/04:30am 24.8 22.2 10.7 41 8.0 E 15 19 8 10 1013.4 1009.5 0.0
20/04:00am 25.0 21.6 10.5 40 8.3 ESE 19 24 10 13 1012.6 1008.7 0.0
20/03:30am 25.3 21.6 10.0 38 8.6 ESE 20 26 11 14 1012.8 1008.9 0.0
20/03:00am 25.4 21.7 10.1 38 8.7 ESE 20 32 11 17 1012.5 1008.6 0.0
20/02:30am 25.7 21.5 9.9 37 8.9 ESE 22 28 12 15 1012.5 1008.6 0.0
20/02:00am 25.9 20.6 9.7 36 9.1 ESE 28 33 15 18 1012.5 1008.6 0.0
20/01:30am 26.2 22.1 10.0 36 9.2 ESE 22 30 12 16 1012.6 1008.7 0.0
20/01:00am 26.5 22.0 10.2 36 9.3 E 24 35 13 19 1012.6 1008.7 0.0
20/12:30am 26.8 21.8 10.9 37 9.2 ESE 28 39 15 21 1012.4 1008.5 0.0
20/12:00am 27.1 21.8 11.2 37 9.2 ESE 30 41 16 22 1012.6 1008.7 0.0
 
Date/Time
WST
Temp
°C
App
Temp
°C
Dew
Point
°C
Rel
Hum
%
Delta-T
°C
Wind Press
QNH
hPa
Press
MSL
hPa
Rain since
9am
mm
Dir  Spd
km/h
Gust
km/h
Spd
kts
Gust
kts
19/11:30pm 27.5 23.0 11.5 37 9.4 ESE 26 35 14 19 1012.6 1008.7 0.0
19/11:00pm 28.0 23.3 12.0 37 9.5 ESE 28 46 15 25 1012.9 1009.0 0.0
19/10:30pm 28.3 24.4 12.2 37 9.6 ESE 24 32 13 17 1012.7 1008.8 0.0
19/10:00pm 28.6 24.8 12.5 37 9.6 ESE 24 33 13 18 1012.6 1008.7 0.0
19/09:30pm 28.9 24.7 12.3 36 9.9 ESE 26 33 14 18 1012.4 1008.5 0.0
19/09:00pm 29.2 23.7 11.7 34 10.4 ESE 32 41 17 22 1012.3 1008.4 0.0
19/08:30pm 30.0 24.4 12.0 33 10.7 SE 33 46 18 25 1011.8 1007.9 0.0
19/08:11pm 31.2 28.9 13.0 33 11.1 SE 17 46 9 25 1011.6 1007.7 0.0
19/08:00pm 31.4 29.9 13.2 33 11.1 ESE 13 17 7 9 1011.2 1007.3 0.0
19/07:30pm 31.9 29.9 12.7 31 11.7 SE 15 17 8 9 1010.6 1006.7 0.0
19/07:00pm 33.0 30.4 12.1 28 12.6 SSE 17 20 9 11 1010.3 1006.4 0.0

Other formats

Comma delimited format used in spreadsheet applications
http://www.bom.gov.au/fwo/IDW60801/IDW60801.95439.axf

JavaScript Object Notation format (JSON) in row-major order
http://www.bom.gov.au/fwo/IDW60801/IDW60801.95439.json

Data quality

Most of these data are generated automatically and are frequently updated. Quality checks on data are not normally performed. It is possible for incorrect values to appear. Refer to information at About Latest Weather Observations and please check the disclaimer before using these data.